sensor_id;sensor_type;location;lat;lon;timestamp;temperature;humidity
6956;DHT22;50345;51.136;16.886;2023-04-01T00:01:39;9.10;99.90
6956;DHT22;50345;51.136;16.886;2023-04-01T00:04:05;9.10;99.90
6956;DHT22;50345;51.136;16.886;2023-04-01T00:06:31;9.10;99.90
6956;DHT22;50345;51.136;16.886;2023-04-01T00:08:57;9.20;99.90
6956;DHT22;50345;51.136;16.886;2023-04-01T00:11:23;9.20;99.90
6956;DHT22;50345;51.136;16.886;2023-04-01T00:13:48;9.10;99.90
6956;DHT22;50345;51.136;16.886;2023-04-01T00:16:14;9.20;99.90
6956;DHT22;50345;51.136;16.886;2023-04-01T00:18:41;9.20;99.90
6956;DHT22;50345;51.136;16.886;2023-04-01T00:21:06;9.20;99.90
6956;DHT22;50345;51.136;16.886;2023-04-01T00:23:33;9.20;99.90
6956;DHT22;50345;51.136;16.886;2023-04-01T00:26:00;9.20;99.90
6956;DHT22;50345;51.136;16.886;2023-04-01T00:28:26;9.20;99.90
6956;DHT22;50345;51.136;16.886;2023-04-01T00:30:52;9.20;99.90
6956;DHT22;50345;51.136;16.886;2023-04-01T00:33:17;9.20;99.90
6956;DHT22;50345;51.136;16.886;2023-04-01T00:35:43;9.10;99.90
6956;DHT22;50345;51.136;16.886;2023-04-01T00:38:10;9.10;99.90
6956;DHT22;50345;51.136;16.886;2023-04-01T00:40:42;9.10;99.90
6956;DHT22;50345;51.136;16.886;2023-04-01T00:43:17;9.10;99.90
6956;DHT22;50345;51.136;16.886;2023-04-01T00:45:46;9.10;99.90
6956;DHT22;50345;51.136;16.886;2023-04-01T00:48:22;9.10;99.90
6956;DHT22;50345;51.136;16.886;2023-04-01T00:50:59;9.20;99.90
6956;DHT22;50345;51.136;16.886;2023-04-01T00:53:26;9.20;99.90
6956;DHT22;50345;51.136;16.886;2023-04-01T00:56:07;9.30;99.90
6956;DHT22;50345;51.136;16.886;2023-04-01T00:58:38;9.30;99.90
6956;DHT22;50345;51.136;16.886;2023-04-01T01:01:05;9.30;99.90
6956;DHT22;50345;51.136;16.886;2023-04-01T01:03:31;9.30;99.90
6956;DHT22;50345;51.136;16.886;2023-04-01T01:11:28;9.30;99.90
6956;DHT22;50345;51.136;16.886;2023-04-01T01:16:44;9.30;99.90
6956;DHT22;50345;51.136;16.886;2023-04-01T01:25:09;9.40;99.90
6956;DHT22;50345;51.136;16.886;2023-04-01T01:27:41;9.40;99.90
6956;DHT22;50345;51.136;16.886;2023-04-01T01:35:51;9.40;99.90
6956;DHT22;50345;51.136;16.886;2023-04-01T01:38:21;9.40;99.90
6956;DHT22;50345;51.136;16.886;2023-04-01T01:40:50;9.40;99.90
6956;DHT22;50345;51.136;16.886;2023-04-01T01:43:22;9.40;99.90
6956;DHT22;50345;51.136;16.886;2023-04-01T01:45:52;9.40;99.90
6956;DHT22;50345;51.136;16.886;2023-04-01T01:48:19;9.40;99.90
6956;DHT22;50345;51.136;16.886;2023-04-01T01:50:46;9.40;99.90
6956;DHT22;50345;51.136;16.886;2023-04-01T01:53:13;9.40;99.90
6956;DHT22;50345;51.136;16.886;2023-04-01T01:55:44;9.50;99.90
6956;DHT22;50345;51.136;16.886;2023-04-01T01:58:24;9.40;99.90
6956;DHT22;50345;51.136;16.886;2023-04-01T02:00:54;9.50;99.90
6956;DHT22;50345;51.136;16.886;2023-04-01T02:03:22;9.50;99.90
6956;DHT22;50345;51.136;16.886;2023-04-01T02:05:52;9.50;99.90
6956;DHT22;50345;51.136;16.886;2023-04-01T02:08:23;9.50;99.90
6956;DHT22;50345;51.136;16.886;2023-04-01T02:11:01;9.50;99.90
6956;DHT22;50345;51.136;16.886;2023-04-01T02:14:15;9.50;99.90
6956;DHT22;50345;51.136;16.886;2023-04-01T02:16:28;9.40;99.90
6956;DHT22;50345;51.136;16.886;2023-04-01T02:18:58;9.40;99.90
6956;DHT22;50345;51.136;16.886;2023-04-01T02:21:29;9.50;99.90
6956;DHT22;50345;51.136;16.886;2023-04-01T02:23:56;9.50;99.90
6956;DHT22;50345;51.136;16.886;2023-04-01T02:26:24;9.50;99.90
6956;DHT22;50345;51.136;16.886;2023-04-01T02:28:53;9.50;99.90
6956;DHT22;50345;51.136;16.886;2023-04-01T02:31:20;9.50;99.90
6956;DHT22;50345;51.136;16.886;2023-04-01T02:33:47;9.50;99.90
6956;DHT22;50345;51.136;16.886;2023-04-01T02:36:14;9.50;99.90
6956;DHT22;50345;51.136;16.886;2023-04-01T02:38:42;9.50;99.90
6956;DHT22;50345;51.136;16.886;2023-04-01T02:41:08;9.50;99.90
6956;DHT22;50345;51.136;16.886;2023-04-01T02:43:33;9.50;99.90
6956;DHT22;50345;51.136;16.886;2023-04-01T02:45:59;9.50;99.90
6956;DHT22;50345;51.136;16.886;2023-04-01T02:48:25;9.50;99.90
6956;DHT22;50345;51.136;16.886;2023-04-01T02:50:50;9.50;99.90
6956;DHT22;50345;51.136;16.886;2023-04-01T02:53:16;9.50;99.90
6956;DHT22;50345;51.136;16.886;2023-04-01T02:55:42;9.50;99.90
6956;DHT22;50345;51.136;16.886;2023-04-01T02:58:08;9.60;99.90
6956;DHT22;50345;51.136;16.886;2023-04-01T03:00:34;9.60;99.90
6956;DHT22;50345;51.136;16.886;2023-04-01T03:02:59;9.60;99.90
6956;DHT22;50345;51.136;16.886;2023-04-01T03:05:25;9.60;99.90
6956;DHT22;50345;51.136;16.886;2023-04-01T03:07:51;9.60;99.90
6956;DHT22;50345;51.136;16.886;2023-04-01T03:10:17;9.60;99.90
6956;DHT22;50345;51.136;16.886;2023-04-01T03:12:43;9.60;99.90
6956;DHT22;50345;51.136;16.886;2023-04-01T03:15:10;9.60;99.90
6956;DHT22;50345;51.136;16.886;2023-04-01T03:17:37;9.60;99.90
6956;DHT22;50345;51.136;16.886;2023-04-01T03:20:03;9.60;99.90
6956;DHT22;50345;51.136;16.886;2023-04-01T03:22:30;9.70;99.90
6956;DHT22;50345;51.136;16.886;2023-04-01T03:24:56;9.60;99.90
6956;DHT22;50345;51.136;16.886;2023-04-01T03:27:21;9.70;99.90
6956;DHT22;50345;51.136;16.886;2023-04-01T03:29:47;9.70;99.90
6956;DHT22;50345;51.136;16.886;2023-04-01T03:32:13;9.70;99.90
6956;DHT22;50345;51.136;16.886;2023-04-01T03:34:38;9.70;99.90
6956;DHT22;50345;51.136;16.886;2023-04-01T03:37:04;9.70;99.90
6956;DHT22;50345;51.136;16.886;2023-04-01T03:39:31;9.70;99.90
6956;DHT22;50345;51.136;16.886;2023-04-01T03:41:57;9.70;99.90
6956;DHT22;50345;51.136;16.886;2023-04-01T03:44:22;9.60;99.90
6956;DHT22;50345;51.136;16.886;2023-04-01T03:46:48;9.60;99.90
6956;DHT22;50345;51.136;16.886;2023-04-01T03:49:13;9.60;99.90
6956;DHT22;50345;51.136;16.886;2023-04-01T03:51:41;9.60;99.90
6956;DHT22;50345;51.136;16.886;2023-04-01T03:54:07;9.50;99.90
6956;DHT22;50345;51.136;16.886;2023-04-01T03:56:33;9.50;99.90
6956;DHT22;50345;51.136;16.886;2023-04-01T03:59:02;9.40;99.90
6956;DHT22;50345;51.136;16.886;2023-04-01T04:01:28;9.40;99.90
6956;DHT22;50345;51.136;16.886;2023-04-01T04:03:55;9.40;99.90
6956;DHT22;50345;51.136;16.886;2023-04-01T04:06:22;9.40;99.90
6956;DHT22;50345;51.136;16.886;2023-04-01T04:08:48;9.30;99.90
6956;DHT22;50345;51.136;16.886;2023-04-01T04:11:14;9.30;99.90
6956;DHT22;50345;51.136;16.886;2023-04-01T04:13:39;9.30;99.90
6956;DHT22;50345;51.136;16.886;2023-04-01T04:16:05;9.30;99.90
6956;DHT22;50345;51.136;16.886;2023-04-01T04:18:32;9.30;99.90
6956;DHT22;50345;51.136;16.886;2023-04-01T04:20:57;9.20;99.90
6956;DHT22;50345;51.136;16.886;2023-04-01T04:23:23;9.20;99.90
6956;DHT22;50345;51.136;16.886;2023-04-01T04:26:00;9.20;99.90
6956;DHT22;50345;51.136;16.886;2023-04-01T04:28:27;9.10;99.90
6956;DHT22;50345;51.136;16.886;2023-04-01T04:30:54;9.10;99.90
6956;DHT22;50345;51.136;16.886;2023-04-01T04:33:22;9.10;99.90
6956;DHT22;50345;51.136;16.886;2023-04-01T04:35:48;9.10;99.90
6956;DHT22;50345;51.136;16.886;2023-04-01T04:38:15;9.10;99.90
6956;DHT22;50345;51.136;16.886;2023-04-01T04:40:41;9.10;99.90
6956;DHT22;50345;51.136;16.886;2023-04-01T04:43:10;9.10;99.90
6956;DHT22;50345;51.136;16.886;2023-04-01T04:45:36;9.10;99.90
6956;DHT22;50345;51.136;16.886;2023-04-01T04:48:01;9.00;99.90
6956;DHT22;50345;51.136;16.886;2023-04-01T04:50:27;9.00;99.90
6956;DHT22;50345;51.136;16.886;2023-04-01T04:52:53;9.10;99.90
6956;DHT22;50345;51.136;16.886;2023-04-01T04:55:19;9.10;99.90
6956;DHT22;50345;51.136;16.886;2023-04-01T04:57:45;9.10;99.90
6956;DHT22;50345;51.136;16.886;2023-04-01T05:00:11;9.10;99.90
6956;DHT22;50345;51.136;16.886;2023-04-01T05:02:37;9.10;99.90
6956;DHT22;50345;51.136;16.886;2023-04-01T05:05:03;9.10;99.90
6956;DHT22;50345;51.136;16.886;2023-04-01T05:07:29;9.10;99.90
6956;DHT22;50345;51.136;16.886;2023-04-01T05:09:55;9.00;99.90
6956;DHT22;50345;51.136;16.886;2023-04-01T05:12:20;9.10;99.90
6956;DHT22;50345;51.136;16.886;2023-04-01T05:14:46;9.10;99.90
6956;DHT22;50345;51.136;16.886;2023-04-01T05:17:12;9.10;99.90
6956;DHT22;50345;51.136;16.886;2023-04-01T05:19:38;9.10;99.90
6956;DHT22;50345;51.136;16.886;2023-04-01T05:22:05;9.10;99.90
6956;DHT22;50345;51.136;16.886;2023-04-01T05:24:31;9.10;99.90
6956;DHT22;50345;51.136;16.886;2023-04-01T05:26:57;9.20;99.90
6956;DHT22;50345;51.136;16.886;2023-04-01T05:29:24;9.20;99.90
6956;DHT22;50345;51.136;16.886;2023-04-01T05:31:50;9.20;99.90
6956;DHT22;50345;51.136;16.886;2023-04-01T05:34:15;9.30;99.90
6956;DHT22;50345;51.136;16.886;2023-04-01T05:36:42;9.30;99.90
6956;DHT22;50345;51.136;16.886;2023-04-01T05:39:08;9.30;99.90
6956;DHT22;50345;51.136;16.886;2023-04-01T05:41:38;9.40;99.90
6956;DHT22;50345;51.136;16.886;2023-04-01T05:44:04;9.30;99.90
6956;DHT22;50345;51.136;16.886;2023-04-01T05:46:31;9.40;99.90
6956;DHT22;50345;51.136;16.886;2023-04-01T05:48:57;9.40;99.90
6956;DHT22;50345;51.136;16.886;2023-04-01T05:51:23;9.40;99.90
6956;DHT22;50345;51.136;16.886;2023-04-01T05:53:49;9.40;99.90
6956;DHT22;50345;51.136;16.886;2023-04-01T05:56:15;9.50;99.90
6956;DHT22;50345;51.136;16.886;2023-04-01T05:58:41;9.50;99.90
6956;DHT22;50345;51.136;16.886;2023-04-01T06:01:09;9.50;99.90
6956;DHT22;50345;51.136;16.886;2023-04-01T06:03:36;9.50;99.90
6956;DHT22;50345;51.136;16.886;2023-04-01T06:06:02;9.60;99.90
6956;DHT22;50345;51.136;16.886;2023-04-01T06:08:30;9.60;99.90
6956;DHT22;50345;51.136;16.886;2023-04-01T06:30:47;9.80;99.90
6956;DHT22;50345;51.136;16.886;2023-04-01T06:36:39;9.90;99.90
6956;DHT22;50345;51.136;16.886;2023-04-01T06:55:47;10.30;99.90
6956;DHT22;50345;51.136;16.886;2023-04-01T06:58:21;10.30;99.90
6956;DHT22;50345;51.136;16.886;2023-04-01T07:00:53;10.40;99.90
6956;DHT22;50345;51.136;16.886;2023-04-01T07:03:30;10.40;99.90
6956;DHT22;50345;51.136;16.886;2023-04-01T07:06:02;10.40;99.90
6956;DHT22;50345;51.136;16.886;2023-04-01T07:08:29;10.50;99.90
6956;DHT22;50345;51.136;16.886;2023-04-01T07:11:04;10.60;99.90
6956;DHT22;50345;51.136;16.886;2023-04-01T07:14:13;10.60;99.90
6956;DHT22;50345;51.136;16.886;2023-04-01T07:16:40;10.50;99.90
6956;DHT22;50345;51.136;16.886;2023-04-01T07:19:14;10.50;99.90
6956;DHT22;50345;51.136;16.886;2023-04-01T07:21:41;10.50;99.90
6956;DHT22;50345;51.136;16.886;2023-04-01T07:24:15;10.50;99.90
6956;DHT22;50345;51.136;16.886;2023-04-01T07:26:43;10.50;99.90
6956;DHT22;50345;51.136;16.886;2023-04-01T07:29:14;10.50;99.90
6956;DHT22;50345;51.136;16.886;2023-04-01T07:40:23;10.80;99.90
6956;DHT22;50345;51.136;16.886;2023-04-01T08:04:26;11.60;99.90
6956;DHT22;50345;51.136;16.886;2023-04-01T08:07:07;11.70;99.90
6956;DHT22;50345;51.136;16.886;2023-04-01T08:09:59;11.70;99.90
6956;DHT22;50345;51.136;16.886;2023-04-01T08:12:52;11.70;99.90
6956;DHT22;50345;51.136;16.886;2023-04-01T08:20:51;11.50;99.90
6956;DHT22;50345;51.136;16.886;2023-04-01T08:28:39;11.60;99.90
6956;DHT22;50345;51.136;16.886;2023-04-01T08:31:13;11.60;99.90
6956;DHT22;50345;51.136;16.886;2023-04-01T08:33:42;11.60;99.90
6956;DHT22;50345;51.136;16.886;2023-04-01T08:36:20;11.60;99.90
6956;DHT22;50345;51.136;16.886;2023-04-01T08:47:09;12.10;99.90
6956;DHT22;50345;51.136;16.886;2023-04-01T08:52:31;12.50;99.90
6956;DHT22;50345;51.136;16.886;2023-04-01T09:10:50;12.20;99.90
6956;DHT22;50345;51.136;16.886;2023-04-01T09:27:29;13.10;99.90
6956;DHT22;50345;51.136;16.886;2023-04-01T09:43:39;16.40;99.90
6956;DHT22;50345;51.136;16.886;2023-04-01T10:05:35;15.60;99.90
6956;DHT22;50345;51.136;16.886;2023-04-01T10:39:08;15.20;99.90
6956;DHT22;50345;51.136;16.886;2023-04-01T10:50:37;14.10;99.90
6956;DHT22;50345;51.136;16.886;2023-04-01T11:29:19;14.20;99.90
6956;DHT22;50345;51.136;16.886;2023-04-01T11:37:29;15.70;99.90
6956;DHT22;50345;51.136;16.886;2023-04-01T11:42:38;16.90;99.90
6956;DHT22;50345;51.136;16.886;2023-04-01T11:54:07;15.80;99.90
6956;DHT22;50345;51.136;16.886;2023-04-01T11:56:55;15.30;99.90
6956;DHT22;50345;51.136;16.886;2023-04-01T12:04:54;14.80;99.90
6956;DHT22;50345;51.136;16.886;2023-04-01T12:13:13;15.50;99.90
6956;DHT22;50345;51.136;16.886;2023-04-01T12:18:46;15.60;99.90
6956;DHT22;50345;51.136;16.886;2023-04-01T12:26:56;15.20;99.90
6956;DHT22;50345;51.136;16.886;2023-04-01T12:32:59;15.30;99.90
6956;DHT22;50345;51.136;16.886;2023-04-01T12:38:51;15.40;99.90
6956;DHT22;50345;51.136;16.886;2023-04-01T12:41:23;15.30;99.90
6956;DHT22;50345;51.136;16.886;2023-04-01T12:46:52;15.30;99.90
6956;DHT22;50345;51.136;16.886;2023-04-01T12:52:08;15.10;99.90
6956;DHT22;50345;51.136;16.886;2023-04-01T12:55:03;15.00;99.90
6956;DHT22;50345;51.136;16.886;2023-04-01T13:00:57;14.70;99.90
6956;DHT22;50345;51.136;16.886;2023-04-01T13:06:16;14.60;99.90
6956;DHT22;50345;51.136;16.886;2023-04-01T13:09:08;14.40;99.90
6956;DHT22;50345;51.136;16.886;2023-04-01T13:18:05;14.10;99.90
6956;DHT22;50345;51.136;16.886;2023-04-01T13:23:55;13.60;99.90
6956;DHT22;50345;51.136;16.886;2023-04-01T13:37:16;12.40;99.90
6956;DHT22;50345;51.136;16.886;2023-04-01T13:42:24;12.00;99.90
6956;DHT22;50345;51.136;16.886;2023-04-01T13:47:55;11.80;99.90
6956;DHT22;50345;51.136;16.886;2023-04-01T14:04:47;11.80;99.90
6956;DHT22;50345;51.136;16.886;2023-04-01T14:10:11;11.80;99.90
6956;DHT22;50345;51.136;16.886;2023-04-01T14:12:57;11.80;99.90
6956;DHT22;50345;51.136;16.886;2023-04-01T14:20:53;11.70;99.90
6956;DHT22;50345;51.136;16.886;2023-04-01T14:40:27;12.20;99.90
6956;DHT22;50345;51.136;16.886;2023-04-01T14:43:25;12.30;99.90
6956;DHT22;50345;51.136;16.886;2023-04-01T14:51:28;12.40;99.90
6956;DHT22;50345;51.136;16.886;2023-04-01T14:59:26;12.60;99.90
6956;DHT22;50345;51.136;16.886;2023-04-01T15:02:03;12.60;99.90
6956;DHT22;50345;51.136;16.886;2023-04-01T15:04:55;12.60;99.90
6956;DHT22;50345;51.136;16.886;2023-04-01T15:24:10;13.50;99.90
6956;DHT22;50345;51.136;16.886;2023-04-01T15:35:06;13.80;99.90
6956;DHT22;50345;51.136;16.886;2023-04-01T15:40:37;13.90;99.90
6956;DHT22;50345;51.136;16.886;2023-04-01T15:43:38;14.00;99.90
6956;DHT22;50345;51.136;16.886;2023-04-01T15:46:21;14.10;99.90
6956;DHT22;50345;51.136;16.886;2023-04-01T16:00:29;14.20;99.90
6956;DHT22;50345;51.136;16.886;2023-04-01T16:05:34;14.10;99.90
6956;DHT22;50345;51.136;16.886;2023-04-01T16:08:37;14.00;99.90
6956;DHT22;50345;51.136;16.886;2023-04-01T16:14:18;13.60;99.90
6956;DHT22;50345;51.136;16.886;2023-04-01T16:20:01;13.30;99.90
6956;DHT22;50345;51.136;16.886;2023-04-01T16:25:43;13.10;99.90
6956;DHT22;50345;51.136;16.886;2023-04-01T16:28:28;12.90;99.90
6956;DHT22;50345;51.136;16.886;2023-04-01T16:31:23;12.80;99.90
6956;DHT22;50345;51.136;16.886;2023-04-01T16:34:07;12.70;99.90
6956;DHT22;50345;51.136;16.886;2023-04-01T16:36:55;12.60;99.90
6956;DHT22;50345;51.136;16.886;2023-04-01T16:39:47;12.50;99.90
6956;DHT22;50345;51.136;16.886;2023-04-01T16:47:36;12.30;99.90
6956;DHT22;50345;51.136;16.886;2023-04-01T16:58:26;12.10;99.90
6956;DHT22;50345;51.136;16.886;2023-04-01T17:01:04;12.10;99.90
6956;DHT22;50345;51.136;16.886;2023-04-01T17:03:41;12.00;99.90
6956;DHT22;50345;51.136;16.886;2023-04-01T17:06:14;11.90;99.90
6956;DHT22;50345;51.136;16.886;2023-04-01T17:11:23;11.90;99.90
6956;DHT22;50345;51.136;16.886;2023-04-01T17:17:05;11.80;99.90
6956;DHT22;50345;51.136;16.886;2023-04-01T17:20:03;11.80;99.90
6956;DHT22;50345;51.136;16.886;2023-04-01T17:30:59;11.60;99.90
6956;DHT22;50345;51.136;16.886;2023-04-01T17:52:46;11.60;99.90
6956;DHT22;50345;51.136;16.886;2023-04-01T17:58:19;11.60;99.90
6956;DHT22;50345;51.136;16.886;2023-04-01T18:01:13;11.60;99.90
6956;DHT22;50345;51.136;16.886;2023-04-01T18:07:18;11.60;99.90
6956;DHT22;50345;51.136;16.886;2023-04-01T18:10:00;11.60;99.90
6956;DHT22;50345;51.136;16.886;2023-04-01T18:12:36;11.60;99.90
6956;DHT22;50345;51.136;16.886;2023-04-01T18:15:39;11.50;99.90
6956;DHT22;50345;51.136;16.886;2023-04-01T18:18:11;11.50;99.90
6956;DHT22;50345;51.136;16.886;2023-04-01T18:27:17;11.40;99.90
6956;DHT22;50345;51.136;16.886;2023-04-01T18:29:53;11.40;99.90
6956;DHT22;50345;51.136;16.886;2023-04-01T18:32:36;11.30;99.90
6956;DHT22;50345;51.136;16.886;2023-04-01T18:40:34;11.20;99.90
6956;DHT22;50345;51.136;16.886;2023-04-01T18:46:16;11.10;99.90
6956;DHT22;50345;51.136;16.886;2023-04-01T18:51:14;11.00;99.90
6956;DHT22;50345;51.136;16.886;2023-04-01T18:53:46;11.00;99.90
6956;DHT22;50345;51.136;16.886;2023-04-01T18:56:25;11.00;99.90
6956;DHT22;50345;51.136;16.886;2023-04-01T18:59:09;11.00;99.90
6956;DHT22;50345;51.136;16.886;2023-04-01T19:06:55;10.90;99.90
6956;DHT22;50345;51.136;16.886;2023-04-01T19:09:29;10.80;99.90
6956;DHT22;50345;51.136;16.886;2023-04-01T19:25:25;10.70;99.90
6956;DHT22;50345;51.136;16.886;2023-04-01T19:28:03;10.70;99.90
6956;DHT22;50345;51.136;16.886;2023-04-01T19:30:56;10.70;99.90
6956;DHT22;50345;51.136;16.886;2023-04-01T19:41:57;10.60;99.90
6956;DHT22;50345;51.136;16.886;2023-04-01T19:53:31;10.50;99.90
6956;DHT22;50345;51.136;16.886;2023-04-01T20:01:10;10.50;99.90
6956;DHT22;50345;51.136;16.886;2023-04-01T20:03:51;10.40;99.90
6956;DHT22;50345;51.136;16.886;2023-04-01T20:06:56;10.40;99.90
6956;DHT22;50345;51.136;16.886;2023-04-01T20:15:31;10.40;99.90
6956;DHT22;50345;51.136;16.886;2023-04-01T20:18:02;10.40;99.90
6956;DHT22;50345;51.136;16.886;2023-04-01T20:20:30;10.30;99.90
6956;DHT22;50345;51.136;16.886;2023-04-01T20:23:25;10.30;99.90
6956;DHT22;50345;51.136;16.886;2023-04-01T20:26:20;10.30;99.90
6956;DHT22;50345;51.136;16.886;2023-04-01T20:32:05;10.30;99.90
6956;DHT22;50345;51.136;16.886;2023-04-01T20:48:46;10.30;99.90
6956;DHT22;50345;51.136;16.886;2023-04-01T20:51:26;10.30;99.90
6956;DHT22;50345;51.136;16.886;2023-04-01T21:02:34;10.20;99.90
6956;DHT22;50345;51.136;16.886;2023-04-01T21:11:20;10.20;99.90
6956;DHT22;50345;51.136;16.886;2023-04-01T21:16:47;10.10;99.90
6956;DHT22;50345;51.136;16.886;2023-04-01T21:35:47;9.90;99.90
6956;DHT22;50345;51.136;16.886;2023-04-01T21:46:56;9.90;99.90
6956;DHT22;50345;51.136;16.886;2023-04-01T21:55:08;9.80;99.90
6956;DHT22;50345;51.136;16.886;2023-04-01T22:11:08;9.60;99.90
6956;DHT22;50345;51.136;16.886;2023-04-01T22:13:49;9.60;99.90
6956;DHT22;50345;51.136;16.886;2023-04-01T22:16:56;9.50;99.90
6956;DHT22;50345;51.136;16.886;2023-04-01T22:27:43;9.40;99.90
6956;DHT22;50345;51.136;16.886;2023-04-01T22:30:22;9.40;99.90
6956;DHT22;50345;51.136;16.886;2023-04-01T22:32:51;9.50;99.90
6956;DHT22;50345;51.136;16.886;2023-04-01T22:38:45;9.50;99.90
6956;DHT22;50345;51.136;16.886;2023-04-01T22:42:04;9.50;99.90
6956;DHT22;50345;51.136;16.886;2023-04-01T22:44:33;9.40;99.90
6956;DHT22;50345;51.136;16.886;2023-04-01T22:47:13;9.40;99.90
6956;DHT22;50345;51.136;16.886;2023-04-01T22:49:50;9.40;99.90
6956;DHT22;50345;51.136;16.886;2023-04-01T22:52:42;9.50;99.90
6956;DHT22;50345;51.136;16.886;2023-04-01T22:55:24;9.40;99.90
6956;DHT22;50345;51.136;16.886;2023-04-01T22:57:53;9.40;99.90
6956;DHT22;50345;51.136;16.886;2023-04-01T23:05:18;9.40;99.90
6956;DHT22;50345;51.136;16.886;2023-04-01T23:10:56;9.40;99.90
6956;DHT22;50345;51.136;16.886;2023-04-01T23:13:28;9.40;99.90
6956;DHT22;50345;51.136;16.886;2023-04-01T23:15:55;9.30;99.90
6956;DHT22;50345;51.136;16.886;2023-04-01T23:18:35;9.30;99.90
6956;DHT22;50345;51.136;16.886;2023-04-01T23:23:43;9.30;99.90
6956;DHT22;50345;51.136;16.886;2023-04-01T23:29:01;9.20;99.90
6956;DHT22;50345;51.136;16.886;2023-04-01T23:31:38;9.20;99.90
6956;DHT22;50345;51.136;16.886;2023-04-01T23:36:43;9.10;99.90
6956;DHT22;50345;51.136;16.886;2023-04-01T23:42:06;9.00;99.90
6956;DHT22;50345;51.136;16.886;2023-04-01T23:44:33;9.00;99.90
6956;DHT22;50345;51.136;16.886;2023-04-01T23:47:01;8.90;99.90
6956;DHT22;50345;51.136;16.886;2023-04-01T23:49:35;8.80;99.90
6956;DHT22;50345;51.136;16.886;2023-04-01T23:52:14;8.70;99.90
6956;DHT22;50345;51.136;16.886;2023-04-01T23:54:49;8.60;99.90
6956;DHT22;50345;51.136;16.886;2023-04-01T23:57:21;8.60;99.90
